KALB

Albany International Airport

Airport
ICAO code
KALB
IATA Code
ALB
Summary
ICAO Region
NAM
ICAO Territory
Location

Colonie, New York

Serving
Albany
Elevation
285 ft
Coordinates
42° 44' 43" N , 73° 48' 34" W
KCC
Airport WX
Cumulonimbus
Metar
KALB 151751Z 05008G15KT 10SM SCT070 24/09 A3002 RMK AO2 SLP165 T02390094 10244 20178 58006

Description

Albany International Airport is a public use airport located 6 nm northwest of the central business district of Albany, in Albany County, New York.

Airport map

Aerial View

SKYbrary Partners:

Safety knowledge contributed by: